sensor_id;sensor_type;location;lat;lon;timestamp;P1;durP1;ratioP1;P2;durP2;ratioP2
2558;SDS011;1289;53.488;10.006;2023-04-15T00:01:21;7.20;;;6.50;;
2558;SDS011;1289;53.488;10.006;2023-04-15T00:03:49;6.57;;;5.97;;
2558;SDS011;1289;53.488;10.006;2023-04-15T00:06:16;8.03;;;7.33;;
2558;SDS011;1289;53.488;10.006;2023-04-15T00:08:43;7.43;;;6.90;;
2558;SDS011;1289;53.488;10.006;2023-04-15T00:11:10;7.40;;;6.70;;
2558;SDS011;1289;53.488;10.006;2023-04-15T00:13:36;7.07;;;6.47;;
2558;SDS011;1289;53.488;10.006;2023-04-15T00:16:05;7.30;;;6.60;;
2558;SDS011;1289;53.488;10.006;2023-04-15T00:18:32;6.73;;;6.13;;
2558;SDS011;1289;53.488;10.006;2023-04-15T00:20:59;8.80;;;7.50;;
2558;SDS011;1289;53.488;10.006;2023-04-15T00:23:25;8.10;;;7.30;;
2558;SDS011;1289;53.488;10.006;2023-04-15T00:25:55;7.83;;;7.07;;
2558;SDS011;1289;53.488;10.006;2023-04-15T00:28:21;9.00;;;8.20;;
2558;SDS011;1289;53.488;10.006;2023-04-15T00:30:48;8.90;;;7.80;;
2558;SDS011;1289;53.488;10.006;2023-04-15T00:33:16;8.53;;;7.60;;
2558;SDS011;1289;53.488;10.006;2023-04-15T00:35:43;8.90;;;8.10;;
2558;SDS011;1289;53.488;10.006;2023-04-15T00:38:09;9.03;;;6.50;;
2558;SDS011;1289;53.488;10.006;2023-04-15T00:40:36;8.47;;;6.90;;
2558;SDS011;1289;53.488;10.006;2023-04-15T00:43:03;8.17;;;7.37;;
2558;SDS011;1289;53.488;10.006;2023-04-15T00:45:30;8.03;;;7.23;;
2558;SDS011;1289;53.488;10.006;2023-04-15T00:47:57;8.27;;;7.40;;
2558;SDS011;1289;53.488;10.006;2023-04-15T00:50:25;8.40;;;7.70;;
2558;SDS011;1289;53.488;10.006;2023-04-15T00:52:52;8.50;;;7.70;;
2558;SDS011;1289;53.488;10.006;2023-04-15T00:55:18;7.53;;;6.83;;
2558;SDS011;1289;53.488;10.006;2023-04-15T00:57:45;7.17;;;6.47;;
2558;SDS011;1289;53.488;10.006;2023-04-15T01:00:12;7.53;;;6.80;;
2558;SDS011;1289;53.488;10.006;2023-04-15T01:02:39;7.27;;;6.67;;
2558;SDS011;1289;53.488;10.006;2023-04-15T01:05:06;9.20;;;8.17;;
2558;SDS011;1289;53.488;10.006;2023-04-15T01:07:34;7.70;;;7.00;;
2558;SDS011;1289;53.488;10.006;2023-04-15T01:10:01;6.47;;;5.90;;
2558;SDS011;1289;53.488;10.006;2023-04-15T01:12:28;7.43;;;6.73;;
2558;SDS011;1289;53.488;10.006;2023-04-15T01:14:58;7.30;;;6.60;;
2558;SDS011;1289;53.488;10.006;2023-04-15T01:17:25;8.27;;;7.47;;
2558;SDS011;1289;53.488;10.006;2023-04-15T01:19:51;7.30;;;6.67;;
2558;SDS011;1289;53.488;10.006;2023-04-15T01:22:18;7.33;;;6.60;;
2558;SDS011;1289;53.488;10.006;2023-04-15T01:24:48;7.17;;;6.47;;
2558;SDS011;1289;53.488;10.006;2023-04-15T01:27:19;7.10;;;6.40;;
2558;SDS011;1289;53.488;10.006;2023-04-15T01:29:46;7.27;;;6.57;;
2558;SDS011;1289;53.488;10.006;2023-04-15T01:32:13;7.43;;;6.80;;
2558;SDS011;1289;53.488;10.006;2023-04-15T01:34:39;8.63;;;7.13;;
2558;SDS011;1289;53.488;10.006;2023-04-15T01:37:06;10.30;;;7.73;;
2558;SDS011;1289;53.488;10.006;2023-04-15T01:39:32;7.70;;;6.90;;
2558;SDS011;1289;53.488;10.006;2023-04-15T01:41:59;7.57;;;6.80;;
2558;SDS011;1289;53.488;10.006;2023-04-15T01:44:27;9.07;;;7.37;;
2558;SDS011;1289;53.488;10.006;2023-04-15T01:46:54;7.03;;;6.37;;
2558;SDS011;1289;53.488;10.006;2023-04-15T01:49:20;6.93;;;6.37;;
2558;SDS011;1289;53.488;10.006;2023-04-15T01:51:47;7.00;;;6.20;;
2558;SDS011;1289;53.488;10.006;2023-04-15T01:54:14;7.50;;;6.80;;
2558;SDS011;1289;53.488;10.006;2023-04-15T01:56:40;6.97;;;6.37;;
2558;SDS011;1289;53.488;10.006;2023-04-15T01:59:08;7.20;;;6.60;;
2558;SDS011;1289;53.488;10.006;2023-04-15T02:01:36;6.77;;;6.20;;
2558;SDS011;1289;53.488;10.006;2023-04-15T02:04:03;7.70;;;6.90;;
2558;SDS011;1289;53.488;10.006;2023-04-15T02:06:30;7.93;;;7.13;;
2558;SDS011;1289;53.488;10.006;2023-04-15T02:08:56;7.33;;;6.63;;
2558;SDS011;1289;53.488;10.006;2023-04-15T02:11:24;7.70;;;7.00;;
2558;SDS011;1289;53.488;10.006;2023-04-15T02:13:51;8.80;;;7.90;;
2558;SDS011;1289;53.488;10.006;2023-04-15T02:16:19;8.13;;;7.43;;
2558;SDS011;1289;53.488;10.006;2023-04-15T02:18:47;7.50;;;6.80;;
2558;SDS011;1289;53.488;10.006;2023-04-15T02:21:13;7.57;;;6.87;;
2558;SDS011;1289;53.488;10.006;2023-04-15T02:23:40;9.50;;;8.40;;
2558;SDS011;1289;53.488;10.006;2023-04-15T02:26:11;8.07;;;7.37;;
2558;SDS011;1289;53.488;10.006;2023-04-15T02:28:38;8.30;;;7.50;;
2558;SDS011;1289;53.488;10.006;2023-04-15T02:31:04;9.27;;;8.20;;
2558;SDS011;1289;53.488;10.006;2023-04-15T02:33:31;9.10;;;8.13;;
2558;SDS011;1289;53.488;10.006;2023-04-15T02:36:00;8.27;;;7.47;;
2558;SDS011;1289;53.488;10.006;2023-04-15T02:38:27;9.27;;;8.30;;
2558;SDS011;1289;53.488;10.006;2023-04-15T02:40:55;10.13;;;9.13;;
2558;SDS011;1289;53.488;10.006;2023-04-15T02:43:21;10.10;;;9.10;;
2558;SDS011;1289;53.488;10.006;2023-04-15T02:45:49;10.10;;;8.40;;
2558;SDS011;1289;53.488;10.006;2023-04-15T02:48:16;9.70;;;8.70;;
2558;SDS011;1289;53.488;10.006;2023-04-15T02:50:44;11.20;;;10.10;;
2558;SDS011;1289;53.488;10.006;2023-04-15T02:53:14;10.87;;;8.20;;
2558;SDS011;1289;53.488;10.006;2023-04-15T02:55:41;12.33;;;9.73;;
2558;SDS011;1289;53.488;10.006;2023-04-15T02:58:08;10.80;;;9.27;;
2558;SDS011;1289;53.488;10.006;2023-04-15T03:00:35;12.80;;;10.47;;
2558;SDS011;1289;53.488;10.006;2023-04-15T03:03:02;11.53;;;10.33;;
2558;SDS011;1289;53.488;10.006;2023-04-15T03:05:30;10.03;;;8.70;;
2558;SDS011;1289;53.488;10.006;2023-04-15T03:07:57;11.43;;;9.90;;
2558;SDS011;1289;53.488;10.006;2023-04-15T03:10:26;10.93;;;9.83;;
2558;SDS011;1289;53.488;10.006;2023-04-15T03:12:53;11.70;;;9.43;;
2558;SDS011;1289;53.488;10.006;2023-04-15T03:15:22;10.53;;;9.33;;
2558;SDS011;1289;53.488;10.006;2023-04-15T03:17:50;11.10;;;10.00;;
2558;SDS011;1289;53.488;10.006;2023-04-15T03:20:17;12.97;;;10.10;;
2558;SDS011;1289;53.488;10.006;2023-04-15T03:22:46;10.63;;;9.53;;
2558;SDS011;1289;53.488;10.006;2023-04-15T03:25:12;12.40;;;10.60;;
2558;SDS011;1289;53.488;10.006;2023-04-15T03:27:40;13.07;;;9.90;;
2558;SDS011;1289;53.488;10.006;2023-04-15T03:30:07;13.67;;;11.73;;
2558;SDS011;1289;53.488;10.006;2023-04-15T03:32:36;15.60;;;12.03;;
2558;SDS011;1289;53.488;10.006;2023-04-15T03:35:05;15.30;;;12.07;;
2558;SDS011;1289;53.488;10.006;2023-04-15T03:37:32;14.00;;;11.57;;
2558;SDS011;1289;53.488;10.006;2023-04-15T03:39:58;13.27;;;11.30;;
2558;SDS011;1289;53.488;10.006;2023-04-15T03:42:25;13.73;;;11.87;;
2558;SDS011;1289;53.488;10.006;2023-04-15T03:44:53;12.13;;;10.37;;
2558;SDS011;1289;53.488;10.006;2023-04-15T03:47:20;16.20;;;12.03;;
2558;SDS011;1289;53.488;10.006;2023-04-15T03:49:46;14.70;;;12.57;;
2558;SDS011;1289;53.488;10.006;2023-04-15T03:52:13;14.20;;;11.33;;
2558;SDS011;1289;53.488;10.006;2023-04-15T03:54:40;14.13;;;12.37;;
2558;SDS011;1289;53.488;10.006;2023-04-15T03:57:06;12.30;;;10.87;;
2558;SDS011;1289;53.488;10.006;2023-04-15T03:59:33;12.37;;;11.03;;
2558;SDS011;1289;53.488;10.006;2023-04-15T04:02:01;14.47;;;12.77;;
2558;SDS011;1289;53.488;10.006;2023-04-15T04:04:27;20.90;;;12.40;;
2558;SDS011;1289;53.488;10.006;2023-04-15T04:06:54;14.93;;;12.03;;
2558;SDS011;1289;53.488;10.006;2023-04-15T04:09:20;13.37;;;11.97;;
2558;SDS011;1289;53.488;10.006;2023-04-15T04:11:47;13.50;;;12.10;;
2558;SDS011;1289;53.488;10.006;2023-04-15T04:14:13;13.33;;;10.40;;
2558;SDS011;1289;53.488;10.006;2023-04-15T04:16:40;14.00;;;10.83;;
2558;SDS011;1289;53.488;10.006;2023-04-15T04:19:08;13.80;;;12.07;;
2558;SDS011;1289;53.488;10.006;2023-04-15T04:21:35;12.60;;;11.30;;
2558;SDS011;1289;53.488;10.006;2023-04-15T04:24:01;14.10;;;11.47;;
2558;SDS011;1289;53.488;10.006;2023-04-15T04:26:28;13.13;;;11.60;;
2558;SDS011;1289;53.488;10.006;2023-04-15T04:28:55;13.90;;;10.60;;
2558;SDS011;1289;53.488;10.006;2023-04-15T04:31:22;12.80;;;11.50;;
2558;SDS011;1289;53.488;10.006;2023-04-15T04:33:49;12.27;;;10.73;;
2558;SDS011;1289;53.488;10.006;2023-04-15T04:36:17;12.43;;;10.63;;
2558;SDS011;1289;53.488;10.006;2023-04-15T04:38:43;13.40;;;11.67;;
2558;SDS011;1289;53.488;10.006;2023-04-15T04:41:10;14.40;;;12.20;;
2558;SDS011;1289;53.488;10.006;2023-04-15T04:43:37;12.87;;;10.60;;
2558;SDS011;1289;53.488;10.006;2023-04-15T04:46:03;11.90;;;10.50;;
2558;SDS011;1289;53.488;10.006;2023-04-15T04:48:30;11.60;;;10.40;;
2558;SDS011;1289;53.488;10.006;2023-04-15T04:50:57;14.73;;;13.13;;
2558;SDS011;1289;53.488;10.006;2023-04-15T04:53:25;13.33;;;11.77;;
2558;SDS011;1289;53.488;10.006;2023-04-15T04:55:52;14.07;;;11.40;;
2558;SDS011;1289;53.488;10.006;2023-04-15T04:58:19;18.10;;;13.47;;
2558;SDS011;1289;53.488;10.006;2023-04-15T05:00:45;17.60;;;13.77;;
2558;SDS011;1289;53.488;10.006;2023-04-15T05:03:12;17.70;;;14.27;;
2558;SDS011;1289;53.488;10.006;2023-04-15T05:05:39;18.30;;;14.33;;
2558;SDS011;1289;53.488;10.006;2023-04-15T05:08:06;17.20;;;14.33;;
2558;SDS011;1289;53.488;10.006;2023-04-15T05:10:34;20.60;;;14.87;;
2558;SDS011;1289;53.488;10.006;2023-04-15T05:13:01;20.03;;;14.80;;
2558;SDS011;1289;53.488;10.006;2023-04-15T05:15:27;19.87;;;15.13;;
2558;SDS011;1289;53.488;10.006;2023-04-15T05:17:54;21.77;;;16.47;;
2558;SDS011;1289;53.488;10.006;2023-04-15T05:20:20;21.90;;;16.67;;
2558;SDS011;1289;53.488;10.006;2023-04-15T05:22:47;23.70;;;16.67;;
2558;SDS011;1289;53.488;10.006;2023-04-15T05:25:14;21.83;;;17.03;;
2558;SDS011;1289;53.488;10.006;2023-04-15T05:27:42;21.93;;;16.40;;
2558;SDS011;1289;53.488;10.006;2023-04-15T05:30:09;18.83;;;15.90;;
2558;SDS011;1289;53.488;10.006;2023-04-15T05:32:37;25.33;;;18.47;;
2558;SDS011;1289;53.488;10.006;2023-04-15T05:35:04;24.33;;;16.40;;
2558;SDS011;1289;53.488;10.006;2023-04-15T05:37:32;24.93;;;18.13;;
2558;SDS011;1289;53.488;10.006;2023-04-15T05:39:58;25.73;;;19.17;;
2558;SDS011;1289;53.488;10.006;2023-04-15T05:42:25;23.80;;;18.60;;
2558;SDS011;1289;53.488;10.006;2023-04-15T05:44:53;28.63;;;20.37;;
2558;SDS011;1289;53.488;10.006;2023-04-15T05:47:19;27.43;;;20.27;;
2558;SDS011;1289;53.488;10.006;2023-04-15T05:49:46;31.70;;;21.90;;
2558;SDS011;1289;53.488;10.006;2023-04-15T05:52:12;26.53;;;19.63;;
2558;SDS011;1289;53.488;10.006;2023-04-15T05:54:39;31.33;;;22.07;;
2558;SDS011;1289;53.488;10.006;2023-04-15T05:57:06;27.10;;;20.00;;
2558;SDS011;1289;53.488;10.006;2023-04-15T05:59:32;26.77;;;19.87;;
2558;SDS011;1289;53.488;10.006;2023-04-15T06:02:00;35.93;;;23.70;;
2558;SDS011;1289;53.488;10.006;2023-04-15T06:04:27;28.03;;;20.63;;
2558;SDS011;1289;53.488;10.006;2023-04-15T06:06:53;34.10;;;22.70;;
2558;SDS011;1289;53.488;10.006;2023-04-15T06:09:20;29.87;;;22.23;;
2558;SDS011;1289;53.488;10.006;2023-04-15T06:11:47;35.30;;;22.10;;
2558;SDS011;1289;53.488;10.006;2023-04-15T06:14:13;31.10;;;22.90;;
2558;SDS011;1289;53.488;10.006;2023-04-15T06:16:40;28.90;;;21.87;;
2558;SDS011;1289;53.488;10.006;2023-04-15T06:19:08;33.57;;;21.87;;
2558;SDS011;1289;53.488;10.006;2023-04-15T06:21:34;32.70;;;22.53;;
2558;SDS011;1289;53.488;10.006;2023-04-15T06:24:01;31.27;;;22.57;;
2558;SDS011;1289;53.488;10.006;2023-04-15T06:26:28;32.10;;;21.83;;
2558;SDS011;1289;53.488;10.006;2023-04-15T06:28:55;31.07;;;22.70;;
2558;SDS011;1289;53.488;10.006;2023-04-15T06:31:22;33.27;;;23.13;;
2558;SDS011;1289;53.488;10.006;2023-04-15T06:33:48;28.87;;;21.47;;
2558;SDS011;1289;53.488;10.006;2023-04-15T06:36:16;30.50;;;21.57;;
2558;SDS011;1289;53.488;10.006;2023-04-15T06:38:43;34.20;;;22.97;;
2558;SDS011;1289;53.488;10.006;2023-04-15T06:41:10;31.30;;;22.80;;
2558;SDS011;1289;53.488;10.006;2023-04-15T06:43:36;32.83;;;24.03;;
2558;SDS011;1289;53.488;10.006;2023-04-15T06:46:03;38.83;;;24.50;;
2558;SDS011;1289;53.488;10.006;2023-04-15T06:48:30;31.87;;;22.70;;
2558;SDS011;1289;53.488;10.006;2023-04-15T06:50:57;33.00;;;23.50;;
2558;SDS011;1289;53.488;10.006;2023-04-15T06:53:25;32.67;;;21.77;;
2558;SDS011;1289;53.488;10.006;2023-04-15T06:55:52;36.67;;;25.33;;
2558;SDS011;1289;53.488;10.006;2023-04-15T06:58:18;36.83;;;24.77;;
2558;SDS011;1289;53.488;10.006;2023-04-15T07:00:45;38.47;;;25.00;;
2558;SDS011;1289;53.488;10.006;2023-04-15T07:03:12;39.60;;;25.93;;
2558;SDS011;1289;53.488;10.006;2023-04-15T07:05:39;35.37;;;25.43;;
2558;SDS011;1289;53.488;10.006;2023-04-15T07:08:06;38.70;;;25.33;;
2558;SDS011;1289;53.488;10.006;2023-04-15T07:10:34;41.73;;;27.10;;
2558;SDS011;1289;53.488;10.006;2023-04-15T07:13:01;36.70;;;25.10;;
2558;SDS011;1289;53.488;10.006;2023-04-15T07:15:27;38.77;;;26.23;;
2558;SDS011;1289;53.488;10.006;2023-04-15T07:17:54;42.13;;;26.77;;
2558;SDS011;1289;53.488;10.006;2023-04-15T07:20:21;40.37;;;27.87;;
2558;SDS011;1289;53.488;10.006;2023-04-15T07:22:47;38.33;;;27.63;;
2558;SDS011;1289;53.488;10.006;2023-04-15T07:25:14;41.53;;;28.57;;
2558;SDS011;1289;53.488;10.006;2023-04-15T07:27:43;40.13;;;26.90;;
2558;SDS011;1289;53.488;10.006;2023-04-15T07:30:10;45.67;;;31.37;;
2558;SDS011;1289;53.488;10.006;2023-04-15T07:32:37;39.17;;;28.00;;
2558;SDS011;1289;53.488;10.006;2023-04-15T07:35:04;40.30;;;28.10;;
2558;SDS011;1289;53.488;10.006;2023-04-15T07:37:30;44.60;;;30.27;;
2558;SDS011;1289;53.488;10.006;2023-04-15T07:39:57;43.97;;;27.40;;
2558;SDS011;1289;53.488;10.006;2023-04-15T07:42:24;42.77;;;28.87;;
2558;SDS011;1289;53.488;10.006;2023-04-15T07:44:52;41.27;;;28.47;;
2558;SDS011;1289;53.488;10.006;2023-04-15T07:47:19;44.67;;;29.10;;
2558;SDS011;1289;53.488;10.006;2023-04-15T07:49:46;37.13;;;27.20;;
2558;SDS011;1289;53.488;10.006;2023-04-15T07:52:13;45.33;;;28.70;;
2558;SDS011;1289;53.488;10.006;2023-04-15T07:54:40;38.37;;;28.33;;
2558;SDS011;1289;53.488;10.006;2023-04-15T07:57:06;38.60;;;28.70;;
2558;SDS011;1289;53.488;10.006;2023-04-15T07:59:33;44.70;;;29.00;;
2558;SDS011;1289;53.488;10.006;2023-04-15T08:02:01;45.50;;;29.93;;
2558;SDS011;1289;53.488;10.006;2023-04-15T08:04:28;38.27;;;27.03;;
2558;SDS011;1289;53.488;10.006;2023-04-15T08:06:55;39.00;;;28.30;;
2558;SDS011;1289;53.488;10.006;2023-04-15T08:09:22;36.80;;;27.43;;
2558;SDS011;1289;53.488;10.006;2023-04-15T08:11:48;41.73;;;28.67;;
2558;SDS011;1289;53.488;10.006;2023-04-15T08:14:15;43.70;;;31.23;;
2558;SDS011;1289;53.488;10.006;2023-04-15T08:16:42;40.73;;;28.20;;
2558;SDS011;1289;53.488;10.006;2023-04-15T08:19:09;43.13;;;28.20;;
2558;SDS011;1289;53.488;10.006;2023-04-15T08:21:36;39.70;;;28.10;;
2558;SDS011;1289;53.488;10.006;2023-04-15T08:24:03;39.27;;;30.10;;
2558;SDS011;1289;53.488;10.006;2023-04-15T08:26:29;48.07;;;30.37;;
2558;SDS011;1289;53.488;10.006;2023-04-15T08:28:56;40.70;;;27.07;;
2558;SDS011;1289;53.488;10.006;2023-04-15T08:31:25;38.17;;;28.70;;
2558;SDS011;1289;53.488;10.006;2023-04-15T08:33:51;42.73;;;28.60;;
2558;SDS011;1289;53.488;10.006;2023-04-15T08:36:20;39.20;;;29.30;;
2558;SDS011;1289;53.488;10.006;2023-04-15T08:38:47;40.83;;;28.90;;
2558;SDS011;1289;53.488;10.006;2023-04-15T08:41:17;38.13;;;26.83;;
2558;SDS011;1289;53.488;10.006;2023-04-15T08:43:48;36.23;;;26.50;;
2558;SDS011;1289;53.488;10.006;2023-04-15T08:46:18;39.40;;;28.67;;
2558;SDS011;1289;53.488;10.006;2023-04-15T08:48:44;37.37;;;28.00;;
2558;SDS011;1289;53.488;10.006;2023-04-15T08:51:13;39.93;;;29.50;;
2558;SDS011;1289;53.488;10.006;2023-04-15T08:53:42;43.80;;;31.50;;
2558;SDS011;1289;53.488;10.006;2023-04-15T08:56:10;39.97;;;29.20;;
2558;SDS011;1289;53.488;10.006;2023-04-15T08:58:38;40.73;;;29.73;;
2558;SDS011;1289;53.488;10.006;2023-04-15T09:01:04;39.10;;;29.37;;
2558;SDS011;1289;53.488;10.006;2023-04-15T09:03:31;37.50;;;27.37;;
2558;SDS011;1289;53.488;10.006;2023-04-15T09:05:58;37.50;;;28.97;;
2558;SDS011;1289;53.488;10.006;2023-04-15T09:08:25;41.73;;;28.50;;
2558;SDS011;1289;53.488;10.006;2023-04-15T09:10:53;37.60;;;27.57;;
2558;SDS011;1289;53.488;10.006;2023-04-15T09:13:20;35.80;;;26.67;;
2558;SDS011;1289;53.488;10.006;2023-04-15T09:15:47;38.00;;;27.53;;
2558;SDS011;1289;53.488;10.006;2023-04-15T09:18:19;38.23;;;29.10;;
2558;SDS011;1289;53.488;10.006;2023-04-15T09:20:53;42.10;;;27.77;;
2558;SDS011;1289;53.488;10.006;2023-04-15T09:23:19;36.70;;;28.30;;
2558;SDS011;1289;53.488;10.006;2023-04-15T09:25:46;39.70;;;27.00;;
2558;SDS011;1289;53.488;10.006;2023-04-15T09:28:22;41.13;;;30.03;;
2558;SDS011;1289;53.488;10.006;2023-04-15T09:30:50;44.30;;;30.03;;
2558;SDS011;1289;53.488;10.006;2023-04-15T09:33:17;40.33;;;28.43;;
2558;SDS011;1289;53.488;10.006;2023-04-15T09:35:49;41.10;;;30.00;;
2558;SDS011;1289;53.488;10.006;2023-04-15T09:38:22;40.90;;;29.10;;
2558;SDS011;1289;53.488;10.006;2023-04-15T09:40:48;41.47;;;29.50;;
2558;SDS011;1289;53.488;10.006;2023-04-15T09:43:17;42.10;;;27.87;;
2558;SDS011;1289;53.488;10.006;2023-04-15T09:45:46;39.73;;;27.87;;
2558;SDS011;1289;53.488;10.006;2023-04-15T09:48:14;40.90;;;28.77;;
2558;SDS011;1289;53.488;10.006;2023-04-15T09:50:42;38.87;;;28.67;;
2558;SDS011;1289;53.488;10.006;2023-04-15T09:53:09;37.60;;;28.83;;
2558;SDS011;1289;53.488;10.006;2023-04-15T09:55:36;37.07;;;26.03;;
2558;SDS011;1289;53.488;10.006;2023-04-15T09:58:07;39.57;;;27.57;;
2558;SDS011;1289;53.488;10.006;2023-04-15T10:00:35;37.67;;;26.77;;
2558;SDS011;1289;53.488;10.006;2023-04-15T10:03:04;39.63;;;27.03;;
2558;SDS011;1289;53.488;10.006;2023-04-15T10:05:31;34.23;;;26.80;;
2558;SDS011;1289;53.488;10.006;2023-04-15T10:07:58;33.80;;;25.77;;
2558;SDS011;1289;53.488;10.006;2023-04-15T10:10:26;40.30;;;27.90;;
2558;SDS011;1289;53.488;10.006;2023-04-15T10:12:53;33.17;;;26.60;;
2558;SDS011;1289;53.488;10.006;2023-04-15T10:15:19;34.90;;;27.37;;
2558;SDS011;1289;53.488;10.006;2023-04-15T10:17:47;32.80;;;25.63;;
2558;SDS011;1289;53.488;10.006;2023-04-15T10:20:16;37.57;;;25.50;;
2558;SDS011;1289;53.488;10.006;2023-04-15T10:22:42;34.70;;;26.53;;
2558;SDS011;1289;53.488;10.006;2023-04-15T10:25:10;35.70;;;27.63;;
2558;SDS011;1289;53.488;10.006;2023-04-15T10:27:38;29.57;;;23.63;;
2558;SDS011;1289;53.488;10.006;2023-04-15T10:30:06;31.53;;;24.80;;
2558;SDS011;1289;53.488;10.006;2023-04-15T10:32:33;31.40;;;24.70;;
2558;SDS011;1289;53.488;10.006;2023-04-15T10:35:02;30.37;;;25.43;;
2558;SDS011;1289;53.488;10.006;2023-04-15T10:37:34;34.30;;;26.30;;
2558;SDS011;1289;53.488;10.006;2023-04-15T10:42:50;32.93;;;24.30;;
2558;SDS011;1289;53.488;10.006;2023-04-15T10:45:17;28.60;;;23.87;;
2558;SDS011;1289;53.488;10.006;2023-04-15T10:47:44;27.50;;;22.47;;
2558;SDS011;1289;53.488;10.006;2023-04-15T10:50:12;30.13;;;23.17;;
2558;SDS011;1289;53.488;10.006;2023-04-15T10:52:39;28.93;;;24.07;;
2558;SDS011;1289;53.488;10.006;2023-04-15T10:55:11;30.00;;;23.17;;
2558;SDS011;1289;53.488;10.006;2023-04-15T10:57:40;32.20;;;23.00;;
2558;SDS011;1289;53.488;10.006;2023-04-15T11:00:11;26.40;;;22.17;;
2558;SDS011;1289;53.488;10.006;2023-04-15T11:02:39;24.07;;;21.47;;
2558;SDS011;1289;53.488;10.006;2023-04-15T11:05:12;23.77;;;20.10;;
2558;SDS011;1289;53.488;10.006;2023-04-15T11:07:40;29.13;;;21.00;;
2558;SDS011;1289;53.488;10.006;2023-04-15T11:13:23;28.47;;;19.50;;
2558;SDS011;1289;53.488;10.006;2023-04-15T11:15:54;23.63;;;19.23;;
2558;SDS011;1289;53.488;10.006;2023-04-15T11:18:24;20.50;;;18.40;;
2558;SDS011;1289;53.488;10.006;2023-04-15T11:20:54;24.00;;;18.67;;
2558;SDS011;1289;53.488;10.006;2023-04-15T11:23:26;20.00;;;17.23;;
2558;SDS011;1289;53.488;10.006;2023-04-15T11:25:54;20.03;;;17.40;;
2558;SDS011;1289;53.488;10.006;2023-04-15T11:28:23;18.90;;;16.90;;
2558;SDS011;1289;53.488;10.006;2023-04-15T11:30:51;19.60;;;17.50;;
2558;SDS011;1289;53.488;10.006;2023-04-15T11:33:18;18.57;;;16.63;;
2558;SDS011;1289;53.488;10.006;2023-04-15T11:35:44;16.13;;;14.27;;
2558;SDS011;1289;53.488;10.006;2023-04-15T11:38:13;20.53;;;17.00;;
2558;SDS011;1289;53.488;10.006;2023-04-15T11:40:40;19.73;;;16.03;;
2558;SDS011;1289;53.488;10.006;2023-04-15T11:43:08;18.93;;;17.03;;
2558;SDS011;1289;53.488;10.006;2023-04-15T11:45:37;21.00;;;16.53;;
2558;SDS011;1289;53.488;10.006;2023-04-15T11:48:09;16.83;;;15.00;;
2558;SDS011;1289;53.488;10.006;2023-04-15T11:50:37;16.77;;;15.07;;
2558;SDS011;1289;53.488;10.006;2023-04-15T11:53:06;17.40;;;15.60;;
2558;SDS011;1289;53.488;10.006;2023-04-15T11:55:41;16.50;;;14.80;;
2558;SDS011;1289;53.488;10.006;2023-04-15T11:58:09;16.80;;;14.63;;
2558;SDS011;1289;53.488;10.006;2023-04-15T12:00:37;16.13;;;14.53;;
2558;SDS011;1289;53.488;10.006;2023-04-15T12:06:02;15.17;;;13.40;;
2558;SDS011;1289;53.488;10.006;2023-04-15T12:08:51;16.57;;;14.87;;
2558;SDS011;1289;53.488;10.006;2023-04-15T12:11:40;15.93;;;14.43;;
2558;SDS011;1289;53.488;10.006;2023-04-15T12:14:09;15.53;;;13.50;;
2558;SDS011;1289;53.488;10.006;2023-04-15T12:16:38;18.03;;;16.33;;
2558;SDS011;1289;53.488;10.006;2023-04-15T12:19:06;15.07;;;13.60;;
2558;SDS011;1289;53.488;10.006;2023-04-15T12:21:36;15.87;;;14.37;;
2558;SDS011;1289;53.488;10.006;2023-04-15T12:24:04;17.03;;;14.43;;
2558;SDS011;1289;53.488;10.006;2023-04-15T12:26:33;14.80;;;13.40;;
2558;SDS011;1289;53.488;10.006;2023-04-15T12:29:03;15.27;;;13.87;;
2558;SDS011;1289;53.488;10.006;2023-04-15T12:31:31;16.27;;;14.60;;
2558;SDS011;1289;53.488;10.006;2023-04-15T12:33:57;15.60;;;14.07;;
2558;SDS011;1289;53.488;10.006;2023-04-15T12:36:24;14.93;;;13.43;;
2558;SDS011;1289;53.488;10.006;2023-04-15T12:38:51;15.37;;;13.77;;
2558;SDS011;1289;53.488;10.006;2023-04-15T12:41:18;14.07;;;12.87;;
2558;SDS011;1289;53.488;10.006;2023-04-15T12:43:46;16.63;;;15.07;;
2558;SDS011;1289;53.488;10.006;2023-04-15T12:46:14;15.07;;;13.67;;
2558;SDS011;1289;53.488;10.006;2023-04-15T12:48:40;15.90;;;14.50;;
2558;SDS011;1289;53.488;10.006;2023-04-15T12:51:07;16.40;;;14.80;;
2558;SDS011;1289;53.488;10.006;2023-04-15T12:53:34;15.63;;;13.93;;
2558;SDS011;1289;53.488;10.006;2023-04-15T12:56:01;17.27;;;15.03;;
2558;SDS011;1289;53.488;10.006;2023-04-15T12:58:28;15.27;;;13.77;;
2558;SDS011;1289;53.488;10.006;2023-04-15T13:00:55;14.63;;;13.13;;
2558;SDS011;1289;53.488;10.006;2023-04-15T13:03:23;44.07;;;16.20;;
2558;SDS011;1289;53.488;10.006;2023-04-15T13:05:50;14.80;;;13.30;;
2558;SDS011;1289;53.488;10.006;2023-04-15T13:08:17;15.40;;;13.80;;
2558;SDS011;1289;53.488;10.006;2023-04-15T13:10:43;16.80;;;12.63;;
2558;SDS011;1289;53.488;10.006;2023-04-15T13:13:10;14.63;;;13.13;;
2558;SDS011;1289;53.488;10.006;2023-04-15T13:15:37;13.80;;;12.50;;
2558;SDS011;1289;53.488;10.006;2023-04-15T13:18:04;15.13;;;13.57;;
2558;SDS011;1289;53.488;10.006;2023-04-15T13:20:33;14.47;;;13.03;;
2558;SDS011;1289;53.488;10.006;2023-04-15T13:22:59;15.20;;;12.67;;
2558;SDS011;1289;53.488;10.006;2023-04-15T13:25:26;14.40;;;13.10;;
2558;SDS011;1289;53.488;10.006;2023-04-15T13:27:52;15.50;;;13.90;;
2558;SDS011;1289;53.488;10.006;2023-04-15T13:30:19;14.73;;;13.17;;
2558;SDS011;1289;53.488;10.006;2023-04-15T13:32:46;14.10;;;12.77;;
2558;SDS011;1289;53.488;10.006;2023-04-15T13:35:12;15.10;;;13.60;;
2558;SDS011;1289;53.488;10.006;2023-04-15T13:37:40;15.83;;;14.23;;
2558;SDS011;1289;53.488;10.006;2023-04-15T13:40:07;15.40;;;13.80;;
2558;SDS011;1289;53.488;10.006;2023-04-15T13:42:34;16.20;;;14.50;;
2558;SDS011;1289;53.488;10.006;2023-04-15T13:45:01;14.17;;;12.77;;
2558;SDS011;1289;53.488;10.006;2023-04-15T13:47:28;20.20;;;13.87;;
2558;SDS011;1289;53.488;10.006;2023-04-15T13:49:54;14.83;;;12.93;;
2558;SDS011;1289;53.488;10.006;2023-04-15T13:52:21;13.77;;;12.40;;
2558;SDS011;1289;53.488;10.006;2023-04-15T13:54:49;14.03;;;12.63;;
2558;SDS011;1289;53.488;10.006;2023-04-15T13:57:16;15.30;;;13.80;;
2558;SDS011;1289;53.488;10.006;2023-04-15T13:59:42;13.10;;;11.87;;
2558;SDS011;1289;53.488;10.006;2023-04-15T14:02:09;13.90;;;12.60;;
2558;SDS011;1289;53.488;10.006;2023-04-15T14:04:36;12.57;;;11.37;;
2558;SDS011;1289;53.488;10.006;2023-04-15T14:07:03;13.50;;;12.10;;
2558;SDS011;1289;53.488;10.006;2023-04-15T14:09:29;12.80;;;11.43;;
2558;SDS011;1289;53.488;10.006;2023-04-15T14:11:57;13.03;;;11.67;;
2558;SDS011;1289;53.488;10.006;2023-04-15T14:14:25;12.07;;;10.87;;
2558;SDS011;1289;53.488;10.006;2023-04-15T14:16:52;13.20;;;11.83;;
2558;SDS011;1289;53.488;10.006;2023-04-15T14:19:20;13.77;;;11.50;;
2558;SDS011;1289;53.488;10.006;2023-04-15T14:21:46;14.03;;;11.13;;
2558;SDS011;1289;53.488;10.006;2023-04-15T14:24:13;13.73;;;12.33;;
2558;SDS011;1289;53.488;10.006;2023-04-15T14:26:39;13.20;;;11.53;;
2558;SDS011;1289;53.488;10.006;2023-04-15T14:29:09;12.43;;;11.23;;
2558;SDS011;1289;53.488;10.006;2023-04-15T14:31:36;12.33;;;11.20;;
2558;SDS011;1289;53.488;10.006;2023-04-15T14:34:02;11.80;;;10.57;;
2558;SDS011;1289;53.488;10.006;2023-04-15T14:36:29;12.70;;;11.50;;
2558;SDS011;1289;53.488;10.006;2023-04-15T14:38:56;12.80;;;10.60;;
2558;SDS011;1289;53.488;10.006;2023-04-15T14:41:23;11.00;;;9.90;;
2558;SDS011;1289;53.488;10.006;2023-04-15T14:43:49;10.70;;;9.67;;
2558;SDS011;1289;53.488;10.006;2023-04-15T14:46:17;12.20;;;11.00;;
2558;SDS011;1289;53.488;10.006;2023-04-15T14:48:44;11.40;;;10.20;;
2558;SDS011;1289;53.488;10.006;2023-04-15T14:51:10;11.83;;;10.20;;